createdAt,value
2019-05-29T00:00:21.209Z,101173.77
2019-05-29T00:02:50.531Z,101173.31
2019-05-29T00:05:19.521Z,101179.04
2019-05-29T00:07:48.506Z,101179.47
2019-05-29T00:10:18.352Z,101186.86
2019-05-29T00:12:47.274Z,101198.50
2019-05-29T00:15:16.410Z,101195.08
2019-05-29T00:17:45.305Z,101197.21
2019-05-29T00:20:14.913Z,101201.94
2019-05-29T00:22:44.322Z,101208.39
2019-05-29T00:25:14.802Z,101203.61
2019-05-29T00:27:43.465Z,101211.38
2019-05-29T00:30:13.464Z,101211.84
2019-05-29T00:32:42.959Z,101209.20
2019-05-29T00:35:12.261Z,101214.84
2019-05-29T00:37:41.757Z,101214.31
2019-05-29T00:40:10.995Z,101218.61
2019-05-29T00:42:39.563Z,101217.70
2019-05-29T00:45:09.536Z,101223.73
2019-05-29T00:47:38.621Z,101222.26
2019-05-29T00:50:07.985Z,101223.89
2019-05-29T00:52:37.464Z,101229.08
2019-05-29T00:55:08.574Z,101233.81
2019-05-29T00:57:37.918Z,101238.13
2019-05-29T01:00:07.007Z,101241.08
2019-05-29T01:02:35.909Z,101238.80
2019-05-29T01:05:04.992Z,101246.23
2019-05-29T01:07:34.195Z,101250.45
2019-05-29T01:10:03.388Z,101244.84
2019-05-29T01:12:32.284Z,101252.14
2019-05-29T01:15:00.912Z,101250.41
2019-05-29T01:17:29.856Z,101261.59
2019-05-29T01:19:58.751Z,101259.86
2019-05-29T01:22:27.947Z,101266.78
2019-05-29T01:24:56.558Z,101258.25
2019-05-29T01:27:25.541Z,101259.05
2019-05-29T01:29:54.618Z,101264.19
2019-05-29T01:32:23.768Z,101271.95
2019-05-29T01:34:52.512Z,101279.71
2019-05-29T01:37:22.284Z,101276.67
2019-05-29T01:39:51.207Z,101281.45
2019-05-29T01:42:19.809Z,101275.26
2019-05-29T01:44:48.448Z,101273.55
2019-05-29T01:47:17.679Z,101282.14
2019-05-29T01:49:47.289Z,101286.42
2019-05-29T01:52:15.976Z,101288.95
2019-05-29T01:54:44.849Z,101298.88
2019-05-29T01:57:14.165Z,101295.44
2019-05-29T01:59:43.094Z,101291.47
2019-05-29T02:02:11.717Z,101299.24
2019-05-29T02:04:40.633Z,101300.47
2019-05-29T02:07:09.586Z,101301.75
2019-05-29T02:09:38.138Z,101297.42
2019-05-29T02:12:07.108Z,101315.59
2019-05-29T02:14:35.993Z,101311.67
2019-05-29T02:17:04.660Z,101314.38
2019-05-29T02:19:33.259Z,101320.50
2019-05-29T02:22:02.258Z,101311.28
2019-05-29T02:24:30.962Z,101319.89
2019-05-29T02:26:59.616Z,101316.48
2019-05-29T02:29:28.532Z,101318.61
2019-05-29T02:31:57.172Z,101326.38
2019-05-29T02:34:27.879Z,101324.23
2019-05-29T02:36:57.049Z,101323.30
2019-05-29T02:39:27.212Z,101326.22
2019-05-29T02:41:56.048Z,101337.53
2019-05-29T02:44:25.500Z,101348.00
2019-05-29T02:46:54.189Z,101346.70
2019-05-29T02:49:23.852Z,101348.87
2019-05-29T02:51:53.294Z,101357.49
2019-05-29T02:54:22.549Z,101352.34
2019-05-29T02:56:51.557Z,101360.42
2019-05-29T02:59:21.051Z,101363.02
2019-05-29T03:01:49.920Z,101364.39
2019-05-29T03:04:18.523Z,101367.30
2019-05-29T03:06:47.516Z,101371.14
2019-05-29T03:09:16.184Z,101377.20
2019-05-29T03:11:44.802Z,101384.48
2019-05-29T03:14:13.403Z,101381.69
2019-05-29T03:16:42.273Z,101378.22
2019-05-29T03:19:11.475Z,101386.95
2019-05-29T03:21:40.387Z,101392.14
2019-05-29T03:24:09.263Z,101391.48
2019-05-29T03:26:38.459Z,101391.45
2019-05-29T03:29:07.549Z,101400.98
2019-05-29T03:31:45.569Z,101404.27
2019-05-29T03:34:07.089Z,101412.15
2019-05-29T03:36:43.561Z,101415.64
2019-05-29T03:39:07.080Z,101417.89
2019-05-29T03:41:35.990Z,101418.85
2019-05-29T03:44:05.101Z,101420.34
2019-05-29T03:46:41.084Z,101422.42
2019-05-29T03:49:04.518Z,101425.83
2019-05-29T03:51:35.047Z,101430.30
2019-05-29T03:54:04.172Z,101438.56
2019-05-29T03:56:34.647Z,101442.80
2019-05-29T03:59:03.469Z,101442.42
2019-05-29T04:01:33.264Z,101441.57
2019-05-29T04:04:02.684Z,101455.94
2019-05-29T04:06:31.429Z,101460.64
2019-05-29T04:09:02.205Z,101459.90
2019-05-29T04:11:31.478Z,101467.05
2019-05-29T04:14:00.499Z,101473.13
2019-05-29T04:16:52.701Z,101479.19
2019-05-29T04:19:04.735Z,101482.06
2019-05-29T04:21:34.707Z,101493.19
2019-05-29T04:24:06.881Z,101495.10
2019-05-29T04:26:39.945Z,101498.20
2019-05-29T04:29:09.319Z,101500.05
2019-05-29T04:31:38.498Z,101506.67
2019-05-29T04:34:07.396Z,101511.53
2019-05-29T04:36:36.919Z,101518.11
2019-05-29T04:39:06.722Z,101514.47
2019-05-29T04:41:37.035Z,101515.28
2019-05-29T04:44:06.546Z,101521.41
2019-05-29T04:46:36.477Z,101520.77
2019-05-29T04:49:06.177Z,101524.63
2019-05-29T04:51:35.454Z,101531.08
2019-05-29T04:54:04.638Z,101538.91
2019-05-29T04:56:34.674Z,101533.23
2019-05-29T04:59:04.039Z,101535.02
2019-05-29T05:01:33.109Z,101545.55
2019-05-29T05:04:01.689Z,101549.23
2019-05-29T05:06:31.202Z,101548.48
2019-05-29T05:09:00.265Z,101553.61
2019-05-29T05:11:29.427Z,101551.02
2019-05-29T05:14:01.500Z,101557.12
2019-05-29T05:16:29.738Z,101565.70
2019-05-29T05:18:58.810Z,101568.83
2019-05-29T05:21:27.782Z,101571.33
2019-05-29T05:23:56.696Z,101576.78
2019-05-29T05:26:25.506Z,101576.77
2019-05-29T05:28:54.160Z,101583.27
2019-05-29T05:31:23.060Z,101588.46
2019-05-29T05:33:51.672Z,101593.87
2019-05-29T05:36:20.642Z,101596.89
2019-05-29T05:38:49.499Z,101596.00
2019-05-29T05:41:18.210Z,101597.60
2019-05-29T05:43:47.111Z,101600.91
2019-05-29T05:46:16.308Z,101606.31
2019-05-29T05:48:45.224Z,101611.17
2019-05-29T05:51:13.853Z,101612.94
2019-05-29T05:53:42.779Z,101617.73
2019-05-29T05:56:11.459Z,101630.27
2019-05-29T05:58:41.976Z,101632.08
2019-05-29T06:01:11.024Z,101630.31
2019-05-29T06:03:40.571Z,101634.19
2019-05-29T06:06:09.793Z,101638.13
2019-05-29T06:08:38.370Z,101644.16
2019-05-29T06:11:07.083Z,101645.08
2019-05-29T06:13:36.307Z,101655.69
2019-05-29T06:16:05.072Z,101660.03
2019-05-29T06:18:34.465Z,101665.28
2019-05-29T06:21:03.475Z,101661.35
2019-05-29T06:23:32.857Z,101673.09
2019-05-29T06:26:01.734Z,101678.00
2019-05-29T06:28:30.349Z,101682.84
2019-05-29T06:30:59.318Z,101678.67
2019-05-29T06:33:27.951Z,101680.00
2019-05-29T06:35:56.896Z,101678.41
2019-05-29T06:38:26.284Z,101678.36
2019-05-29T06:40:54.901Z,101692.04
2019-05-29T06:43:24.670Z,101699.24
2019-05-29T06:45:53.472Z,101705.52
2019-05-29T06:48:41.586Z,101708.64
2019-05-29T06:50:57.699Z,101711.95
2019-05-29T06:53:26.715Z,101720.98
2019-05-29T06:55:57.170Z,101718.57
2019-05-29T06:58:26.788Z,101715.23
2019-05-29T07:00:55.389Z,101710.97
2019-05-29T07:03:24.300Z,101718.15
2019-05-29T07:05:53.202Z,101718.79
2019-05-29T07:08:37.660Z,101724.63
2019-05-29T07:10:52.836Z,101726.61
2019-05-29T07:13:21.732Z,101723.17
2019-05-29T07:15:50.370Z,101732.34
2019-05-29T07:18:19.313Z,101724.11
2019-05-29T07:20:48.515Z,101726.30
2019-05-29T07:23:17.720Z,101730.59
2019-05-29T07:25:47.404Z,101741.49
2019-05-29T07:28:16.420Z,101742.08
2019-05-29T07:30:54.440Z,101743.61
2019-05-29T07:33:16.103Z,101746.89
2019-05-29T07:35:45.699Z,101757.78
2019-05-29T07:38:14.756Z,101752.44
2019-05-29T07:40:47.062Z,101764.58
2019-05-29T07:43:14.375Z,101764.25
2019-05-29T07:45:44.045Z,101757.48
2019-05-29T07:48:13.398Z,101762.34
2019-05-29T07:50:42.240Z,101761.97
2019-05-29T07:53:10.916Z,101766.96
2019-05-29T07:55:40.453Z,101773.83
2019-05-29T07:58:09.566Z,101771.53
2019-05-29T08:01:01.102Z,101761.84
2019-05-29T08:03:08.900Z,101776.91
2019-05-29T08:05:37.510Z,101778.77
2019-05-29T08:08:06.461Z,101778.52
2019-05-29T08:10:35.565Z,101780.20
2019-05-29T08:13:04.165Z,101781.93
2019-05-29T08:15:33.035Z,101780.23
2019-05-29T08:18:01.666Z,101789.50
2019-05-29T08:20:30.628Z,101794.62
2019-05-29T08:22:59.808Z,101795.35
2019-05-29T08:25:28.666Z,101800.81
2019-05-29T08:27:57.328Z,101803.77
2019-05-29T08:30:26.276Z,101811.05
2019-05-29T08:32:55.271Z,101817.11
2019-05-29T08:35:24.267Z,101811.73
2019-05-29T08:37:53.173Z,101824.87
2019-05-29T08:40:22.150Z,101827.63
2019-05-29T08:42:51.567Z,101834.64
2019-05-29T08:45:20.708Z,101838.92
2019-05-29T08:47:49.800Z,101845.20
2019-05-29T08:50:19.427Z,101837.36
2019-05-29T08:52:50.000Z,101841.88
2019-05-29T08:55:18.951Z,101848.42
2019-05-29T08:57:48.436Z,101846.08
2019-05-29T09:00:18.065Z,101853.20
2019-05-29T09:02:47.089Z,101850.31
2019-05-29T09:05:16.094Z,101856.17
2019-05-29T09:07:46.396Z,101857.30
2019-05-29T09:10:15.639Z,101853.95
2019-05-29T09:12:50.658Z,101858.78
2019-05-29T09:15:20.908Z,101855.59
2019-05-29T09:17:45.677Z,101865.03
2019-05-29T09:20:28.401Z,101866.58
2019-05-29T09:22:45.021Z,101871.58
2019-05-29T09:25:15.331Z,101871.02
2019-05-29T09:27:44.710Z,101873.03
2019-05-29T09:30:14.958Z,101882.05
2019-05-29T09:32:50.514Z,101871.33
2019-05-29T09:35:16.076Z,101881.89
2019-05-29T09:37:45.399Z,101884.58
2019-05-29T09:40:18.993Z,101887.78
2019-05-29T09:42:47.915Z,101892.78
2019-05-29T09:45:17.971Z,101892.93
2019-05-29T09:47:47.081Z,101897.87
2019-05-29T09:50:17.336Z,101904.78
2019-05-29T09:52:46.833Z,101920.55
2019-05-29T09:55:15.925Z,101908.45
2019-05-29T09:57:45.227Z,101902.17
2019-05-29T10:00:14.335Z,101895.64
2019-05-29T10:02:42.994Z,101913.14
2019-05-29T10:05:11.913Z,101912.88
2019-05-29T10:07:40.635Z,101913.33
2019-05-29T10:10:09.686Z,101912.21
2019-05-29T10:12:38.372Z,101911.95
2019-05-29T10:15:07.983Z,101925.36
2019-05-29T10:17:36.868Z,101931.03
2019-05-29T10:20:06.384Z,101917.34
2019-05-29T10:22:35.027Z,101925.19
2019-05-29T10:25:03.763Z,101920.81
2019-05-29T10:27:32.641Z,101926.96
2019-05-29T10:30:01.798Z,101941.67
2019-05-29T10:32:30.447Z,101938.36
2019-05-29T10:34:59.142Z,101937.20
2019-05-29T10:37:27.773Z,101940.23
2019-05-29T10:39:56.803Z,101942.03
2019-05-29T10:42:25.679Z,101936.80
2019-05-29T10:44:54.321Z,101940.25
2019-05-29T10:47:23.047Z,101948.78
2019-05-29T10:49:51.959Z,101945.29
2019-05-29T10:52:20.581Z,101950.31
2019-05-29T10:54:50.229Z,101953.69
2019-05-29T10:57:19.746Z,101951.67
2019-05-29T10:59:48.717Z,101946.37
2019-05-29T11:02:17.834Z,101947.70
2019-05-29T11:04:50.519Z,101955.56
2019-05-29T11:07:17.091Z,101950.31
2019-05-29T11:09:46.916Z,101957.21
2019-05-29T11:12:16.684Z,101948.99
2019-05-29T11:14:46.468Z,101958.64
2019-05-29T11:17:15.475Z,101961.62
2019-05-29T11:19:44.386Z,101963.44
2019-05-29T11:22:25.711Z,101968.27
2019-05-29T11:24:44.067Z,101967.36
2019-05-29T11:27:12.878Z,101967.27
2019-05-29T11:29:42.101Z,101971.98
2019-05-29T11:32:10.704Z,101974.81
2019-05-29T11:34:39.983Z,101984.41
2019-05-29T11:37:08.872Z,101975.60
2019-05-29T11:39:38.074Z,101982.44
2019-05-29T11:42:07.065Z,101981.36
2019-05-29T11:44:35.962Z,101975.62
2019-05-29T11:47:05.240Z,101979.45
2019-05-29T11:49:34.148Z,101974.83
2019-05-29T11:52:22.668Z,101967.41
2019-05-29T11:54:33.469Z,101970.90
2019-05-29T11:57:03.286Z,101966.47
2019-05-29T11:59:32.008Z,101971.57
2019-05-29T12:02:03.167Z,101970.03
2019-05-29T12:04:31.283Z,101973.17
2019-05-29T12:07:01.589Z,101967.66
2019-05-29T12:09:33.222Z,101972.59
2019-05-29T12:12:02.156Z,101978.02
2019-05-29T12:14:31.463Z,101973.49
2019-05-29T12:17:00.684Z,101978.32
2019-05-29T12:19:29.646Z,101981.34
2019-05-29T12:21:58.564Z,101983.92
2019-05-29T12:24:27.849Z,101980.06
2019-05-29T12:26:56.522Z,101998.86
2019-05-29T12:29:25.731Z,101998.02
2019-05-29T12:31:54.972Z,101992.94
2019-05-29T12:34:23.648Z,101995.99
2019-05-29T12:36:53.314Z,101992.16
2019-05-29T12:39:22.054Z,101988.82
2019-05-29T12:41:50.688Z,102002.80
2019-05-29T12:44:19.289Z,101993.09
2019-05-29T12:46:48.279Z,101986.78
2019-05-29T12:49:17.263Z,101990.39
2019-05-29T12:51:45.900Z,102004.42
2019-05-29T12:54:14.515Z,101998.35
2019-05-29T12:56:43.736Z,101996.19
2019-05-29T12:59:12.726Z,101994.45
2019-05-29T13:01:41.333Z,101996.19
2019-05-29T13:04:09.974Z,101995.19
2019-05-29T13:06:38.598Z,101997.09
2019-05-29T13:09:08.121Z,102000.23
2019-05-29T13:11:37.083Z,102003.45
2019-05-29T13:14:05.971Z,102002.56
2019-05-29T13:16:34.880Z,101993.34
2019-05-29T13:19:05.223Z,101992.66
2019-05-29T13:21:34.069Z,102001.33
2019-05-29T13:24:06.337Z,102004.10
2019-05-29T13:26:33.623Z,101999.16
2019-05-29T13:29:03.809Z,101996.89
2019-05-29T13:31:33.438Z,101991.08
2019-05-29T13:34:02.311Z,101990.08
2019-05-29T13:36:30.938Z,101982.38
2019-05-29T13:39:00.237Z,101986.79
2019-05-29T13:41:29.107Z,101986.76
2019-05-29T13:43:58.420Z,101989.30
2019-05-29T13:46:27.484Z,101983.22
2019-05-29T13:48:56.779Z,101976.67
2019-05-29T13:51:25.691Z,101985.20
2019-05-29T13:54:03.562Z,101989.63
2019-05-29T13:56:24.710Z,101987.86
2019-05-29T13:58:53.615Z,101991.12
2019-05-29T14:01:22.493Z,101986.78
2019-05-29T14:03:51.135Z,102003.73
2019-05-29T14:06:20.057Z,101992.16
2019-05-29T14:08:48.699Z,101994.06
2019-05-29T14:11:17.308Z,101994.61
2019-05-29T14:13:45.910Z,102000.49
2019-05-29T14:16:14.610Z,101999.31
2019-05-29T14:18:43.679Z,101998.94
2019-05-29T14:21:13.534Z,101988.14
2019-05-29T14:23:42.513Z,101994.75
2019-05-29T14:26:12.990Z,101994.17
2019-05-29T14:28:41.703Z,102004.05
2019-05-29T14:31:10.392Z,102006.25
2019-05-29T14:33:39.301Z,102006.28
2019-05-29T14:36:07.909Z,102002.31
2019-05-29T14:38:36.785Z,101995.64
2019-05-29T14:41:05.791Z,102007.31
2019-05-29T14:43:34.416Z,102003.35
2019-05-29T14:46:03.966Z,102003.05
2019-05-29T14:48:33.370Z,102005.05
2019-05-29T14:51:03.633Z,102003.94
2019-05-29T14:53:32.426Z,102003.98
2019-05-29T14:56:02.524Z,102009.96
2019-05-29T14:58:31.495Z,102003.92
2019-05-29T15:01:00.102Z,102011.88
2019-05-29T15:03:29.078Z,102010.17
2019-05-29T15:05:57.706Z,102010.48
2019-05-29T15:08:26.652Z,102013.16
2019-05-29T15:10:55.294Z,102014.56
2019-05-29T15:13:24.379Z,102014.45
2019-05-29T15:15:53.630Z,102016.39
2019-05-29T15:18:22.276Z,102017.12
2019-05-29T15:20:51.197Z,102015.51
2019-05-29T15:23:19.812Z,102015.73
2019-05-29T15:25:48.682Z,102017.98
2019-05-29T15:28:17.981Z,102011.70
2019-05-29T15:30:47.396Z,102021.06
2019-05-29T15:33:16.855Z,102019.21
2019-05-29T15:35:45.889Z,102020.75
2019-05-29T15:38:14.907Z,102021.47
2019-05-29T15:40:43.824Z,102016.36
2019-05-29T15:43:12.888Z,102018.19
2019-05-29T15:45:41.611Z,102016.12
2019-05-29T15:48:11.055Z,102017.81
2019-05-29T15:50:40.053Z,102017.72
2019-05-29T15:53:08.954Z,102029.30
2019-05-29T15:55:37.845Z,102021.70
2019-05-29T15:58:07.256Z,102018.28
2019-05-29T16:00:36.235Z,102018.04
2019-05-29T16:03:05.434Z,102013.66
2019-05-29T16:05:34.340Z,102013.47
2019-05-29T16:08:03.073Z,102014.92
2019-05-29T16:10:31.705Z,102012.71
2019-05-29T16:13:00.900Z,102005.19
2019-05-29T16:15:29.527Z,102006.07
2019-05-29T16:17:58.158Z,102004.62
2019-05-29T16:20:27.471Z,102002.58
2019-05-29T16:22:56.083Z,102004.88
2019-05-29T16:25:39.727Z,102003.13
2019-05-29T16:27:55.472Z,102011.03
2019-05-29T16:30:24.466Z,102006.75
2019-05-29T16:32:53.055Z,102004.79
2019-05-29T16:35:23.956Z,102010.21
2019-05-29T16:37:52.446Z,102014.43
2019-05-29T16:40:21.935Z,102011.48
2019-05-29T16:42:51.194Z,102006.63
2019-05-29T16:45:20.888Z,102011.45
2019-05-29T16:47:49.850Z,102011.75
2019-05-29T16:50:19.423Z,102010.50
2019-05-29T16:52:48.541Z,102012.22
2019-05-29T16:55:19.351Z,102014.74
2019-05-29T16:57:49.033Z,102014.17
2019-05-29T17:00:19.722Z,102015.85
2019-05-29T17:02:48.761Z,102017.08
2019-05-29T17:05:17.862Z,102019.81
2019-05-29T17:07:46.480Z,102014.30
2019-05-29T17:10:16.306Z,102007.19
2019-05-29T17:12:45.074Z,102005.55
2019-05-29T17:15:15.167Z,102007.11
2019-05-29T17:17:44.464Z,102014.50
2019-05-29T17:20:14.659Z,102006.25
2019-05-29T17:22:44.500Z,102009.55
2019-05-29T17:25:14.707Z,102013.43
2019-05-29T17:27:43.532Z,102018.00
2019-05-29T17:30:12.502Z,102012.11
2019-05-29T17:32:41.426Z,102021.55
2019-05-29T17:35:10.524Z,102014.83
2019-05-29T17:37:39.457Z,102010.36
2019-05-29T17:40:08.895Z,102017.06
2019-05-29T17:42:37.504Z,102023.31
2019-05-29T17:45:06.654Z,102019.34
2019-05-29T17:47:36.281Z,102013.27
2019-05-29T17:50:05.935Z,102014.14
2019-05-29T17:52:35.186Z,102012.41
2019-05-29T17:55:04.106Z,102017.65
2019-05-29T17:57:33.689Z,102018.14
2019-05-29T18:00:05.540Z,102016.80
2019-05-29T18:02:50.429Z,102014.54
2019-05-29T18:05:04.972Z,102019.41
2019-05-29T18:07:33.864Z,102018.09
2019-05-29T18:10:02.875Z,102017.64
2019-05-29T18:12:31.882Z,102022.95
2019-05-29T18:15:00.560Z,102021.13
2019-05-29T18:17:29.427Z,102019.38
2019-05-29T18:19:58.065Z,102025.03
2019-05-29T18:22:27.800Z,102019.44
2019-05-29T18:24:56.785Z,102025.47
2019-05-29T18:27:26.027Z,102027.67
2019-05-29T18:29:56.238Z,102022.34
2019-05-29T18:32:25.208Z,102021.81
2019-05-29T18:34:56.529Z,102027.36
2019-05-29T18:37:26.174Z,102030.16
2019-05-29T18:39:55.309Z,102030.13
2019-05-29T18:42:25.607Z,102029.67
2019-05-29T18:44:54.847Z,102035.53
2019-05-29T18:47:23.547Z,102033.22
2019-05-29T18:49:52.147Z,102026.56
2019-05-29T18:52:21.817Z,102038.59
2019-05-29T18:54:50.478Z,102036.87
2019-05-29T18:57:19.370Z,102039.46
2019-05-29T18:59:48.166Z,102039.27
2019-05-29T19:02:17.472Z,102033.39
2019-05-29T19:04:46.101Z,102045.02
2019-05-29T19:07:14.749Z,102039.60
2019-05-29T19:09:43.831Z,102037.39
2019-05-29T19:12:12.419Z,102038.55
2019-05-29T19:14:41.357Z,102037.63
2019-05-29T19:17:10.304Z,102040.14
2019-05-29T19:19:38.926Z,102041.45
2019-05-29T19:22:07.888Z,102043.72
2019-05-29T19:24:36.869Z,102046.16
2019-05-29T19:27:05.966Z,102051.30
2019-05-29T19:29:34.680Z,102050.39
2019-05-29T19:32:03.680Z,102054.73
2019-05-29T19:34:33.664Z,102056.69
2019-05-29T19:37:02.862Z,102061.17
2019-05-29T19:39:32.043Z,102059.17
2019-05-29T19:42:00.891Z,102057.67
2019-05-29T19:44:30.388Z,102064.51
2019-05-29T19:47:00.062Z,102067.87
2019-05-29T19:49:28.953Z,102078.59
2019-05-29T19:51:57.963Z,102072.75
2019-05-29T19:54:27.441Z,102074.61
2019-05-29T19:56:56.449Z,102068.40
2019-05-29T19:59:25.995Z,102072.39
2019-05-29T20:01:55.258Z,102072.77
2019-05-29T20:04:24.452Z,102077.89
2019-05-29T20:06:53.653Z,102077.14
2019-05-29T20:09:22.259Z,102079.30
2019-05-29T20:11:51.243Z,102082.75
2019-05-29T20:14:20.121Z,102079.27
2019-05-29T20:16:49.424Z,102088.84
2019-05-29T20:19:18.063Z,102087.54
2019-05-29T20:21:46.763Z,102091.92
2019-05-29T20:24:15.703Z,102090.98
2019-05-29T20:26:44.679Z,102092.28
2019-05-29T20:29:13.306Z,102095.31
2019-05-29T20:31:42.923Z,102101.58
2019-05-29T20:34:11.972Z,102100.35
2019-05-29T20:36:41.548Z,102103.25
2019-05-29T20:39:10.876Z,102108.02
2019-05-29T20:41:42.094Z,102106.20
2019-05-29T20:44:10.507Z,102105.03
2019-05-29T20:46:39.137Z,102100.11
2019-05-29T20:49:08.386Z,102101.67
2019-05-29T20:51:38.288Z,102109.66
2019-05-29T20:54:06.886Z,102101.94
2019-05-29T20:56:35.897Z,102111.00
2019-05-29T20:59:04.587Z,102109.58
2019-05-29T21:01:40.133Z,102105.97
2019-05-29T21:04:03.887Z,102108.91
2019-05-29T21:06:32.789Z,102110.54
2019-05-29T21:09:02.094Z,102112.73
2019-05-29T21:11:31.293Z,102116.30
2019-05-29T21:14:00.185Z,102115.07
2019-05-29T21:16:29.280Z,102113.51
2019-05-29T21:19:00.305Z,102119.09
2019-05-29T21:21:29.299Z,102116.04
2019-05-29T21:23:58.195Z,102125.59
2019-05-29T21:26:26.839Z,102123.40
2019-05-29T21:28:55.774Z,102124.38
2019-05-29T21:31:24.665Z,102119.73
2019-05-29T21:33:53.320Z,102127.65
2019-05-29T21:36:22.246Z,102131.52
2019-05-29T21:38:51.134Z,102120.94
2019-05-29T21:41:20.029Z,102126.88
2019-05-29T21:43:48.917Z,102124.27
2019-05-29T21:46:18.114Z,102118.76
2019-05-29T21:48:47.433Z,102122.74
2019-05-29T21:51:16.438Z,102119.84
2019-05-29T21:53:45.502Z,102127.80
2019-05-29T21:56:14.393Z,102134.38
2019-05-29T21:58:58.992Z,102136.77
2019-05-29T22:01:14.023Z,102134.59
2019-05-29T22:03:42.637Z,102134.55
2019-05-29T22:06:11.599Z,102134.94
2019-05-29T22:08:40.810Z,102130.31
2019-05-29T22:11:10.003Z,102131.19
2019-05-29T22:13:38.597Z,102125.46
2019-05-29T22:16:07.329Z,102127.64
2019-05-29T22:18:35.977Z,102132.38
2019-05-29T22:21:07.136Z,102126.88
2019-05-29T22:23:35.728Z,102134.09
2019-05-29T22:26:04.779Z,102127.52
2019-05-29T22:28:33.665Z,102127.77
2019-05-29T22:31:02.269Z,102124.84
2019-05-29T22:33:30.993Z,102123.77
2019-05-29T22:35:59.673Z,102122.30
2019-05-29T22:38:28.714Z,102137.00
2019-05-29T22:40:57.809Z,102132.48
2019-05-29T22:43:26.706Z,102131.39
2019-05-29T22:45:55.636Z,102128.71
2019-05-29T22:48:24.302Z,102118.53
2019-05-29T22:50:53.851Z,102118.88
2019-05-29T22:53:23.066Z,102121.65
2019-05-29T22:55:52.295Z,102115.20
2019-05-29T22:58:20.934Z,102112.61
2019-05-29T23:00:49.855Z,102108.41
2019-05-29T23:03:18.773Z,102104.36
2019-05-29T23:05:47.669Z,102106.65
2019-05-29T23:08:16.561Z,102104.73
2019-05-29T23:10:45.180Z,102107.67
2019-05-29T23:13:14.122Z,102104.58
2019-05-29T23:15:43.219Z,102106.63
2019-05-29T23:18:11.838Z,102109.05
2019-05-29T23:20:40.797Z,102107.97
2019-05-29T23:23:09.402Z,102108.84
2019-05-29T23:25:38.371Z,102105.91
2019-05-29T23:28:06.993Z,102106.62
2019-05-29T23:30:35.854Z,102106.45
2019-05-29T23:33:04.500Z,102101.69
2019-05-29T23:35:33.102Z,102101.98
2019-05-29T23:38:02.011Z,102103.27
2019-05-29T23:40:31.161Z,102096.12
2019-05-29T23:42:59.780Z,102094.37
2019-05-29T23:45:28.468Z,102094.86
2019-05-29T23:47:57.656Z,102094.86
2019-05-29T23:50:26.687Z,102091.52
2019-05-29T23:52:55.652Z,102085.32
2019-05-29T23:55:24.383Z,102086.84
2019-05-29T23:57:53.678Z,102089.21
